AIRPORT ID: GWS

DATE: 2024-06-16 ZULU TIME: 14.55 LOCAL TIME: 8.55


METAR KGWS 161455Z AUTO 00000KT 10SM 15/06 A3002

ALTIMETER: A3002 Q1017

DENSITY ALT: 7100 Ft

WIND DIRECT: 120

WIND SPEED: 3 Gust

WIND CONDITIONS:

VISIBILTY: 10SM 9999M

TEMPERATURE: 59 F 15 C

DEW POINT: 43 F 6 C

HUMID: 56%

LCL: 1,000-3,000 feet

RADIO CHECK: 1

ADVISARIES: 3

GREETINGS: 0

CONVERSATIONS: 13